Waldron Lake, Indiana
Current Conditions -  °F | °C
As of 1:31 PM on Saturday 25 Oct 2014 (Local Time) from KGSH Reporting Station
Haze Haze  
Wind Chill: 18°   Ceiling: Unl
Heat Index: 18°   Visibility: 6mi
Dew Point: 12°   Wind: 15mph
Humidity: 70%   Direction: 280°W
Pressure: 29.91"   Gusts: NA
Location:  41.4818°N, 85.481°W
Report Text: KGSH 251731Z AUTO 28013KT 6SM HZ SCT020 18/12 A2991 RMK AO2 T01780122
Loading
Personal Weather Stations






























Interactive Weather Map
Tropical Storm Tracking
New forecast layout! Learn more

10-Day Weather Forecast

Advertisements
Track Severe Weather on mobile